Terminal Aerodrome Forecast
Issued by NWS

Home | Current Version | Previous Version | Text Only | Print | Product List | Glossary On
Versions: 1 2 3 4 5 6 7 8 9 10 11 12
000
FTUS43 KDLH 250500
TAFBRD
TAF
KBRD 250528Z 2506/2606 21009KT P6SM OVC009
      TEMPO 2506/2508 6SM -SN OVC015
     FM251000 22009KT 6SM BR OVC008
     FM251800 27004KT P6SM OVC010
     FM252200 33005KT P6SM OVC015
     FM260100 35004KT 6SM -SN OVC015=

USA.gov is the U.S. government's official web portal to all federal, state and local government web resources and services.